Time;durP1;ratioP1;P1;durP2;ratioP2;P2;SDS_P1;SDS_P2;PMS_P1;PMS_P2;Temp;Humidity;BMP_temperature;BMP_pressure;BME280_temperature;BME280_humidity;BME280_pressure;Samples;Min_cycle;Max_cycle;Signal;HPM_P1;HPM_P2
2023/09/11 00:02:26;;;;;;;23.60;16.60;;;;;;;;;;5113134;28;20535;-61
2023/09/11 00:04:53;;;;;;;25.50;15.07;;;;;;;;;;5113035;28;20519;-61
2023/09/11 00:07:20;;;;;;;20.20;16.20;;;;;;;;;;5113405;28;20539;-60
2023/09/11 00:09:48;;;;;;;27.77;16.00;;;;;;;;;;5112974;28;20438;-61
2023/09/11 00:12:15;;;;;;;27.27;16.73;;;;;;;;;;5112854;28;20530;-61
2023/09/11 00:14:43;;;;;;;29.67;16.23;;;;;;;;;;5113044;28;20869;-61
2023/09/11 00:17:10;;;;;;;34.27;16.30;;;;;;;;;;5113008;28;20453;-61
2023/09/11 00:19:38;;;;;;;32.17;17.80;;;;;;;;;;5112989;28;20435;-60
2023/09/11 00:22:05;;;;;;;29.37;17.97;;;;;;;;;;5112899;28;20439;-61
2023/09/11 00:24:33;;;;;;;25.73;15.97;;;;;;;;;;5112941;28;20462;-61
2023/09/11 00:27:00;;;;;;;25.60;17.60;;;;;;;;;;5112571;28;21015;-61
2023/09/11 00:29:27;;;;;;;25.37;17.87;;;;;;;;;;5112998;28;20818;-61
2023/09/11 00:31:54;;;;;;;30.50;17.07;;;;;;;;;;5114005;28;20799;-61
2023/09/11 00:34:21;;;;;;;29.30;17.30;;;;;;;;;;5117046;28;20521;-61
2023/09/11 00:36:50;;;;;;;26.23;17.10;;;;;;;;;;5116944;28;20833;-61
2023/09/11 00:39:17;;;;;;;36.63;18.20;;;;;;;;;;5116917;28;20443;-61
2023/09/11 00:41:44;;;;;;;23.23;16.40;;;;;;;;;;5116402;28;20431;-61
2023/09/11 00:44:11;;;;;;;26.73;18.07;;;;;;;;;;5116362;28;20435;-61
2023/09/11 00:46:39;;;;;;;20.73;18.50;;;;;;;;;;5116397;28;20445;-61
2023/09/11 00:49:06;;;;;;;23.93;17.53;;;;;;;;;;5115819;28;20565;-61
2023/09/11 00:51:34;;;;;;;21.40;18.27;;;;;;;;;;5115789;28;20920;-61
2023/09/11 00:54:03;;;;;;;32.77;19.00;;;;;;;;;;5116556;28;21013;-60
2023/09/11 00:56:30;;;;;;;25.90;19.60;;;;;;;;;;5115824;28;20434;-61
2023/09/11 00:58:57;;;;;;;25.33;19.03;;;;;;;;;;5115972;28;20439;-61
2023/09/11 01:01:25;;;;;;;24.33;19.20;;;;;;;;;;5116071;28;20522;-61
2023/09/11 01:03:52;;;;;;;31.47;20.13;;;;;;;;;;5116300;28;20735;-61
2023/09/11 01:06:19;;;;;;;26.87;20.50;;;;;;;;;;5116127;28;20530;-61
2023/09/11 01:08:46;;;;;;;31.70;19.67;;;;;;;;;;5115792;28;20474;-61
2023/09/11 01:11:15;;;;;;;25.83;19.60;;;;;;;;;;5115343;28;20517;-61
2023/09/11 01:13:42;;;;;;;32.20;19.83;;;;;;;;;;5115746;28;20435;-61
2023/09/11 01:16:12;;;;;;;27.80;20.57;;;;;;;;;;5115709;28;20431;-61
2023/09/11 01:18:42;;;;;;;45.17;21.67;;;;;;;;;;5115926;28;20782;-61
2023/09/11 01:21:27;;;;;;;33.53;21.80;;;;;;;;;;5116193;28;20856;-60
2023/09/11 01:24:10;;;;;;;25.90;20.77;;;;;;;;;;5115396;28;20562;-61
2023/09/11 01:26:53;;;;;;;25.77;20.90;;;;;;;;;;5115431;28;20892;-61
2023/09/11 01:29:25;;;;;;;26.53;21.00;;;;;;;;;;5115158;28;20471;-61
2023/09/11 01:31:53;;;;;;;31.57;21.33;;;;;;;;;;5115182;28;20427;-61
2023/09/11 01:34:20;;;;;;;31.33;22.07;;;;;;;;;;5115958;28;20521;-61
2023/09/11 01:36:47;;;;;;;26.73;20.80;;;;;;;;;;5114965;28;20535;-61
2023/09/11 01:39:15;;;;;;;39.33;21.37;;;;;;;;;;5115283;28;20526;-61
2023/09/11 01:41:44;;;;;;;30.70;22.20;;;;;;;;;;5115693;28;20465;-61
2023/09/11 01:44:15;;;;;;;30.87;22.40;;;;;;;;;;5115090;28;21018;-60
2023/09/11 01:46:44;;;;;;;33.73;20.50;;;;;;;;;;5115192;28;20441;-61
2023/09/11 01:49:12;;;;;;;25.50;20.00;;;;;;;;;;5114737;28;20513;-61
2023/09/11 01:51:39;;;;;;;30.67;21.50;;;;;;;;;;5115100;28;20464;-61
2023/09/11 01:54:07;;;;;;;33.03;21.77;;;;;;;;;;5115123;28;20446;-60
2023/09/11 01:56:34;;;;;;;34.60;22.00;;;;;;;;;;5114700;28;20427;-61
2023/09/11 01:59:01;;;;;;;26.63;23.13;;;;;;;;;;5114642;28;20822;-61
2023/09/11 02:01:28;;;;;;;34.00;23.10;;;;;;;;;;5114720;28;20776;-61
2023/09/11 02:03:57;;;;;;;32.47;22.00;;;;;;;;;;5115135;28;20433;-61
2023/09/11 02:06:24;;;;;;;36.10;23.03;;;;;;;;;;5114534;28;21010;-61
2023/09/11 02:08:51;;;;;;;33.37;22.77;;;;;;;;;;5114364;28;21015;-61
2023/09/11 02:11:18;;;;;;;33.90;22.20;;;;;;;;;;5114604;28;20801;-61
2023/09/11 02:13:46;;;;;;;31.87;23.07;;;;;;;;;;5114333;28;20927;-61
2023/09/11 02:16:13;;;;;;;33.37;22.50;;;;;;;;;;5114816;28;20447;-63
2023/09/11 02:18:40;;;;;;;30.20;22.23;;;;;;;;;;5114598;28;20473;-61
2023/09/11 02:21:09;;;;;;;29.87;23.30;;;;;;;;;;5115223;28;20443;-60
2023/09/11 02:23:36;;;;;;;32.80;23.50;;;;;;;;;;5113815;28;20983;-59
2023/09/11 02:26:03;;;;;;;36.67;22.97;;;;;;;;;;5114895;28;20418;-60
2023/09/11 02:28:31;;;;;;;29.60;26.00;;;;;;;;;;5114217;28;20475;-61
2023/09/11 02:30:58;;;;;;;33.43;24.00;;;;;;;;;;5114077;28;20446;-61
2023/09/11 02:33:25;;;;;;;33.10;24.87;;;;;;;;;;5114189;28;20522;-61
2023/09/11 02:35:54;;;;;;;27.50;24.50;;;;;;;;;;5113812;28;20530;-61
2023/09/11 02:38:22;;;;;;;32.97;24.57;;;;;;;;;;5113738;28;20758;-61
2023/09/11 02:40:49;;;;;;;30.13;22.93;;;;;;;;;;5114320;28;21006;-61
2023/09/11 02:43:17;;;;;;;26.93;24.00;;;;;;;;;;5114059;28;20521;-61
2023/09/11 02:45:44;;;;;;;30.27;24.83;;;;;;;;;;5113679;28;20438;-60
2023/09/11 02:48:11;;;;;;;35.73;26.10;;;;;;;;;;5113496;28;20439;-60
2023/09/11 02:50:39;;;;;;;31.40;26.30;;;;;;;;;;5114532;28;20465;-60
2023/09/11 02:53:08;;;;;;;29.27;26.20;;;;;;;;;;5114134;28;20539;-60
2023/09/11 02:55:37;;;;;;;30.70;25.73;;;;;;;;;;5113033;28;20441;-60
2023/09/11 02:58:05;;;;;;;35.50;27.17;;;;;;;;;;5113918;28;20445;-60
2023/09/11 03:00:34;;;;;;;44.13;26.07;;;;;;;;;;5113691;28;20529;-61
2023/09/11 03:03:02;;;;;;;35.37;27.70;;;;;;;;;;5113264;28;20942;-60
2023/09/11 03:05:31;;;;;;;45.30;27.70;;;;;;;;;;5113894;28;20446;-60
2023/09/11 03:07:58;;;;;;;33.20;26.57;;;;;;;;;;5114004;28;20554;-61
2023/09/11 03:10:25;;;;;;;37.87;28.47;;;;;;;;;;5113435;28;20482;-60
2023/09/11 03:12:55;;;;;;;38.30;26.97;;;;;;;;;;5113863;28;20809;-60
2023/09/11 03:15:22;;;;;;;31.97;26.30;;;;;;;;;;5113279;28;20449;-60
2023/09/11 03:17:50;;;;;;;37.43;26.33;;;;;;;;;;5113460;28;20436;-61
2023/09/11 03:20:17;;;;;;;30.17;25.73;;;;;;;;;;5113228;28;20834;-60
2023/09/11 03:22:44;;;;;;;47.03;27.77;;;;;;;;;;5113735;28;20778;-60
2023/09/11 03:25:11;;;;;;;36.97;28.73;;;;;;;;;;5112923;28;20829;-60
2023/09/11 03:27:39;;;;;;;29.93;26.70;;;;;;;;;;5113331;28;20441;-60
2023/09/11 03:30:08;;;;;;;35.63;28.40;;;;;;;;;;5113310;28;20476;-60
2023/09/11 03:32:35;;;;;;;41.47;25.47;;;;;;;;;;5113329;28;20536;-60
2023/09/11 03:35:03;;;;;;;29.83;26.63;;;;;;;;;;5113524;28;20465;-60
2023/09/11 03:37:30;;;;;;;38.40;29.30;;;;;;;;;;5113236;28;20500;-61
2023/09/11 03:39:58;;;;;;;42.63;29.23;;;;;;;;;;5113054;28;20922;-61
2023/09/11 03:42:26;;;;;;;40.50;30.07;;;;;;;;;;5113250;28;20442;-61
2023/09/11 03:44:53;;;;;;;34.97;27.40;;;;;;;;;;5113955;28;20446;-60
2023/09/11 03:47:22;;;;;;;36.73;29.40;;;;;;;;;;5113324;28;20444;-61
2023/09/11 03:49:49;;;;;;;36.43;28.90;;;;;;;;;;5113063;28;20488;-61
2023/09/11 03:52:16;;;;;;;37.20;29.57;;;;;;;;;;5117063;28;20560;-61
2023/09/11 03:54:43;;;;;;;35.80;30.73;;;;;;;;;;5132793;28;20453;-61
2023/09/11 03:57:11;;;;;;;34.83;30.23;;;;;;;;;;5133000;28;20439;-61
2023/09/11 03:59:38;;;;;;;32.90;29.53;;;;;;;;;;5133313;28;20863;-61
2023/09/11 04:02:05;;;;;;;36.40;30.63;;;;;;;;;;5133214;28;20476;-61
2023/09/11 04:04:33;;;;;;;35.27;31.13;;;;;;;;;;5133416;28;20746;-61
2023/09/11 04:07:01;;;;;;;39.57;29.90;;;;;;;;;;5134526;27;20421;-61
2023/09/11 04:09:30;;;;;;;36.13;28.13;;;;;;;;;;5137008;27;20465;-61
2023/09/11 04:11:57;;;;;;;35.67;28.43;;;;;;;;;;5136884;27;20453;-61
2023/09/11 04:14:25;;;;;;;37.87;29.20;;;;;;;;;;5137047;27;20446;-61
2023/09/11 04:16:52;;;;;;;39.40;27.90;;;;;;;;;;5137647;27;20440;-61
2023/09/11 04:19:19;;;;;;;38.13;27.90;;;;;;;;;;5137210;27;20532;-61
2023/09/11 04:21:47;;;;;;;41.33;27.50;;;;;;;;;;5136986;27;20434;-61
2023/09/11 04:24:15;;;;;;;38.33;29.40;;;;;;;;;;5136699;27;20469;-61
2023/09/11 04:26:44;;;;;;;36.10;29.43;;;;;;;;;;5137140;27;20455;-61
2023/09/11 04:29:12;;;;;;;43.13;28.33;;;;;;;;;;5136958;27;20483;-61
2023/09/11 04:31:39;;;;;;;36.97;28.37;;;;;;;;;;5136738;27;20444;-61
2023/09/11 04:34:06;;;;;;;35.37;27.90;;;;;;;;;;5136513;27;20917;-61
2023/09/11 04:36:33;;;;;;;34.50;27.30;;;;;;;;;;5136905;27;20528;-61
2023/09/11 04:39:03;;;;;;;39.23;28.50;;;;;;;;;;5136769;27;20438;-61
2023/09/11 04:41:31;;;;;;;37.27;28.60;;;;;;;;;;5136632;27;20516;-61
2023/09/11 04:43:58;;;;;;;29.93;26.73;;;;;;;;;;5136314;27;20429;-61
2023/09/11 04:46:25;;;;;;;41.00;28.57;;;;;;;;;;5136464;27;20440;-61
2023/09/11 04:48:52;;;;;;;31.97;27.90;;;;;;;;;;5136579;27;20547;-65
2023/09/11 04:51:20;;;;;;;35.10;28.53;;;;;;;;;;5136419;27;20437;-63
2023/09/11 04:53:47;;;;;;;47.03;28.97;;;;;;;;;;5135991;27;20451;-61
2023/09/11 04:56:16;;;;;;;42.03;27.93;;;;;;;;;;5136501;27;20444;-61
2023/09/11 04:58:43;;;;;;;31.23;27.40;;;;;;;;;;5136431;27;20444;-61
2023/09/11 05:01:10;;;;;;;37.40;25.60;;;;;;;;;;5136101;27;20540;-61
2023/09/11 05:03:37;;;;;;;40.27;27.30;;;;;;;;;;5136022;27;20444;-61
2023/09/11 05:06:04;;;;;;;34.80;28.00;;;;;;;;;;5136340;27;20874;-61
2023/09/11 05:08:32;;;;;;;37.40;29.00;;;;;;;;;;5135994;27;20446;-61
2023/09/11 05:11:02;;;;;;;38.97;27.07;;;;;;;;;;5136146;27;20478;-61
2023/09/11 05:13:30;;;;;;;30.60;27.00;;;;;;;;;;5136373;27;20604;-61
2023/09/11 05:15:58;;;;;;;35.20;27.60;;;;;;;;;;5135943;27;20526;-61
2023/09/11 05:18:25;;;;;;;36.27;29.13;;;;;;;;;;5136025;27;20448;-61
2023/09/11 05:20:52;;;;;;;39.67;27.93;;;;;;;;;;5135829;27;20483;-60
2023/09/11 05:23:19;;;;;;;42.40;28.00;;;;;;;;;;5135782;27;20434;-60
2023/09/11 05:25:47;;;;;;;38.80;28.80;;;;;;;;;;5136229;27;20563;-61
2023/09/11 05:28:14;;;;;;;38.40;28.53;;;;;;;;;;5135752;27;20449;-61
2023/09/11 05:30:42;;;;;;;46.23;29.80;;;;;;;;;;5136088;27;20501;-61
2023/09/11 05:33:10;;;;;;;44.70;31.80;;;;;;;;;;5135868;27;20527;-62
2023/09/11 05:35:38;;;;;;;42.20;29.50;;;;;;;;;;5135876;27;20443;-61
2023/09/11 05:38:05;;;;;;;35.27;27.30;;;;;;;;;;5136207;27;20445;-61
2023/09/11 05:40:33;;;;;;;41.07;29.20;;;;;;;;;;5135774;27;20446;-60
2023/09/11 05:43:00;;;;;;;29.50;26.33;;;;;;;;;;5135530;27;20469;-61
2023/09/11 05:45:27;;;;;;;38.53;26.47;;;;;;;;;;5135649;27;20462;-61
2023/09/11 05:47:55;;;;;;;32.93;29.37;;;;;;;;;;5135473;27;20524;-61
2023/09/11 05:50:23;;;;;;;39.47;28.67;;;;;;;;;;5135533;27;20477;-61
2023/09/11 05:52:50;;;;;;;40.30;27.83;;;;;;;;;;5135696;27;20438;-60
2023/09/11 05:55:17;;;;;;;39.47;27.93;;;;;;;;;;5135624;27;20942;-61
2023/09/11 05:57:44;;;;;;;36.10;28.40;;;;;;;;;;5135936;27;20517;-61
2023/09/11 06:00:13;;;;;;;42.13;28.10;;;;;;;;;;5135341;27;20442;-61
2023/09/11 06:02:40;;;;;;;36.10;26.47;;;;;;;;;;5135266;27;20460;-60
2023/09/11 06:05:09;;;;;;;37.77;25.47;;;;;;;;;;5135331;27;20441;-60
2023/09/11 06:07:36;;;;;;;30.47;25.90;;;;;;;;;;5135640;27;20445;-61
2023/09/11 06:10:04;;;;;;;30.13;24.00;;;;;;;;;;5134897;27;20469;-61
2023/09/11 06:12:31;;;;;;;34.10;22.97;;;;;;;;;;5134984;27;20441;-61
2023/09/11 06:14:58;;;;;;;34.60;24.70;;;;;;;;;;5135248;27;20476;-61
2023/09/11 06:17:25;;;;;;;41.60;25.43;;;;;;;;;;5135192;27;20469;-62
2023/09/11 06:19:53;;;;;;;33.80;25.20;;;;;;;;;;5135191;27;20539;-61
2023/09/11 06:22:21;;;;;;;34.77;23.20;;;;;;;;;;5135486;27;20524;-62
2023/09/11 06:24:48;;;;;;;32.30;24.70;;;;;;;;;;5134376;27;20467;-61
2023/09/11 06:27:15;;;;;;;32.63;23.30;;;;;;;;;;5135247;27;20979;-62
2023/09/11 06:29:43;;;;;;;37.60;24.97;;;;;;;;;;5133912;27;20437;-61
2023/09/11 06:32:12;;;;;;;32.97;24.43;;;;;;;;;;5134848;27;20460;-61
2023/09/11 06:34:39;;;;;;;29.77;22.50;;;;;;;;;;5134589;27;20934;-62
2023/09/11 06:37:09;;;;;;;35.87;24.73;;;;;;;;;;5134464;27;20442;-61
2023/09/11 06:39:37;;;;;;;31.40;21.87;;;;;;;;;;5134182;27;20438;-62
2023/09/11 06:42:05;;;;;;;29.90;23.50;;;;;;;;;;5134699;27;20440;-62
2023/09/11 06:44:32;;;;;;;30.33;22.73;;;;;;;;;;5134708;27;20442;-61
2023/09/11 06:46:59;;;;;;;33.80;20.70;;;;;;;;;;5134249;27;20949;-61
2023/09/11 06:49:26;;;;;;;41.90;22.80;;;;;;;;;;5134252;27;20434;-61
2023/09/11 06:51:54;;;;;;;31.63;20.17;;;;;;;;;;5134450;27;20576;-62
2023/09/11 06:54:23;;;;;;;35.90;21.83;;;;;;;;;;5134031;27;20950;-62
2023/09/11 06:56:52;;;;;;;31.50;20.03;;;;;;;;;;5134307;27;20444;-61
2023/09/11 06:59:19;;;;;;;36.97;20.03;;;;;;;;;;5134474;27;20435;-61
2023/09/11 07:01:47;;;;;;;37.03;23.30;;;;;;;;;;5134207;27;20448;-61
2023/09/11 07:04:14;;;;;;;42.50;29.40;;;;;;;;;;5134045;27;20437;-61
2023/09/11 07:06:41;;;;;;;32.30;20.60;;;;;;;;;;5134126;27;20862;-62
2023/09/11 07:09:09;;;;;;;28.50;18.37;;;;;;;;;;5134263;27;20820;-61
2023/09/11 07:11:36;;;;;;;33.97;17.50;;;;;;;;;;5134316;27;20473;-61
2023/09/11 07:14:08;;;;;;;43.10;18.50;;;;;;;;;;5134337;27;20528;-62
2023/09/11 07:16:36;;;;;;;25.87;16.87;;;;;;;;;;5134486;27;20418;-62
2023/09/11 07:19:03;;;;;;;27.33;18.63;;;;;;;;;;5133819;27;20953;-62
2023/09/11 07:21:30;;;;;;;26.27;18.07;;;;;;;;;;5134163;27;20797;-62
2023/09/11 07:23:57;;;;;;;27.20;16.00;;;;;;;;;;5133744;27;20465;-62
2023/09/11 07:26:24;;;;;;;32.30;15.93;;;;;;;;;;5133714;27;20529;-62
2023/09/11 07:28:55;;;;;;;26.70;17.77;;;;;;;;;;5133745;28;21011;-62
2023/09/11 07:31:24;;;;;;;33.90;14.30;;;;;;;;;;5134133;28;20803;-62
2023/09/11 07:33:51;;;;;;;32.17;15.97;;;;;;;;;;5133812;28;20630;-61
2023/09/11 07:36:19;;;;;;;30.23;15.77;;;;;;;;;;5133923;28;20442;-62
2023/09/11 07:38:46;;;;;;;25.17;15.33;;;;;;;;;;5133891;28;20525;-62
2023/09/11 07:41:15;;;;;;;26.63;15.10;;;;;;;;;;5135692;27;20450;-62
2023/09/11 07:43:42;;;;;;;21.67;13.80;;;;;;;;;;5138930;27;20517;-62
2023/09/11 07:46:09;;;;;;;28.33;14.43;;;;;;;;;;5137749;27;20536;-62
2023/09/11 07:48:38;;;;;;;24.23;14.90;;;;;;;;;;5138127;27;20518;-61
2023/09/11 07:51:05;;;;;;;28.37;14.37;;;;;;;;;;5137895;27;20482;-62
2023/09/11 07:53:32;;;;;;;23.13;12.87;;;;;;;;;;5137660;27;20438;-61
2023/09/11 07:56:00;;;;;;;20.20;11.83;;;;;;;;;;5137614;27;20460;-61
2023/09/11 07:58:27;;;;;;;15.70;10.33;;;;;;;;;;5137584;27;20462;-61
2023/09/11 08:00:54;;;;;;;17.83;10.73;;;;;;;;;;5138172;27;20931;-62
2023/09/11 08:03:21;;;;;;;15.53;9.70;;;;;;;;;;5137842;27;20536;-61
2023/09/11 08:05:50;;;;;;;16.10;10.30;;;;;;;;;;5137518;27;20533;-61
2023/09/11 08:08:17;;;;;;;15.67;10.10;;;;;;;;;;5136885;27;21033;-60
2023/09/11 08:10:44;;;;;;;18.47;11.87;;;;;;;;;;5137316;27;20806;-61
2023/09/11 08:13:11;;;;;;;13.73;10.90;;;;;;;;;;5137232;27;20528;-61
2023/09/11 08:15:38;;;;;;;20.10;9.80;;;;;;;;;;5137497;27;20436;-61
2023/09/11 08:18:06;;;;;;;19.80;9.67;;;;;;;;;;5137386;27;20434;-62
2023/09/11 08:20:33;;;;;;;19.20;10.40;;;;;;;;;;5136845;27;20472;-62
2023/09/11 08:23:01;;;;;;;17.67;10.83;;;;;;;;;;5136769;27;20479;-61
2023/09/11 08:25:29;;;;;;;23.23;11.50;;;;;;;;;;5136885;27;20553;-61
2023/09/11 08:27:56;;;;;;;20.90;9.83;;;;;;;;;;5136901;27;20437;-61
2023/09/11 08:30:23;;;;;;;23.13;10.00;;;;;;;;;;5136966;27;20452;-61
2023/09/11 08:32:50;;;;;;;14.27;10.77;;;;;;;;;;5136543;27;20447;-61
2023/09/11 08:35:17;;;;;;;14.30;10.40;;;;;;;;;;5136528;27;20934;-61
2023/09/11 08:37:45;;;;;;;20.80;10.20;;;;;;;;;;5136737;27;20524;-61
2023/09/11 08:40:13;;;;;;;16.40;9.57;;;;;;;;;;5136798;27;20866;-61
2023/09/11 08:42:41;;;;;;;20.97;10.80;;;;;;;;;;5136621;27;20441;-62
2023/09/11 08:45:08;;;;;;;15.60;10.37;;;;;;;;;;5136659;27;20429;-62
2023/09/11 08:47:36;;;;;;;12.43;10.17;;;;;;;;;;5136248;27;20524;-62
2023/09/11 08:50:05;;;;;;;16.17;10.80;;;;;;;;;;5136590;27;20783;-61
2023/09/11 08:52:34;;;;;;;24.93;11.07;;;;;;;;;;5135668;27;20569;-61
2023/09/11 08:55:02;;;;;;;19.20;11.00;;;;;;;;;;5136252;27;20620;-61
2023/09/11 08:57:34;;;;;;;19.97;10.23;;;;;;;;;;5136106;27;20930;-61
2023/09/11 09:00:04;;;;;;;23.37;11.40;;;;;;;;;;5136621;27;20428;-61
2023/09/11 09:02:33;;;;;;;36.87;13.13;;;;;;;;;;5135963;27;20440;-61
2023/09/11 09:05:00;;;;;;;36.17;11.50;;;;;;;;;;5135971;27;20474;-60
2023/09/11 09:07:28;;;;;;;20.23;11.17;;;;;;;;;;5136070;27;20435;-60
2023/09/11 09:09:55;;;;;;;24.53;10.20;;;;;;;;;;5135850;27;20440;-61
2023/09/11 09:12:22;;;;;;;37.03;12.27;;;;;;;;;;5136032;27;20832;-61
2023/09/11 09:14:51;;;;;;;29.17;11.77;;;;;;;;;;5135684;27;20547;-61
2023/09/11 09:17:18;;;;;;;62.90;15.60;;;;;;;;;;5136087;27;20521;-61
2023/09/11 09:19:45;;;;;;;40.50;12.30;;;;;;;;;;5136091;27;20507;-61
2023/09/11 09:22:13;;;;;;;18.13;10.43;;;;;;;;;;5135803;27;20531;-61
2023/09/11 09:24:48;;;;;;;35.20;11.60;;;;;;;;;;5135328;27;20475;-61
2023/09/11 09:27:15;;;;;;;22.97;9.93;;;;;;;;;;5135483;27;20519;-60
2023/09/11 09:29:42;;;;;;;32.17;11.50;;;;;;;;;;5135886;27;20535;-61
2023/09/11 09:32:11;;;;;;;30.13;11.07;;;;;;;;;;5135802;27;20509;-61
2023/09/11 09:34:39;;;;;;;22.17;10.30;;;;;;;;;;5135914;27;20435;-61
2023/09/11 09:37:06;;;;;;;80.50;17.10;;;;;;;;;;5135682;27;20443;-61
2023/09/11 09:39:38;;;;;;;46.47;12.23;;;;;;;;;;5135567;27;20440;-61
2023/09/11 09:42:07;;;;;;;28.73;9.80;;;;;;;;;;5135692;27;20429;-61
2023/09/11 09:44:36;;;;;;;40.03;10.43;;;;;;;;;;5135500;27;20472;-62
2023/09/11 09:47:07;;;;;;;45.30;11.57;;;;;;;;;;5135566;27;20441;-61
2023/09/11 09:49:43;;;;;;;19.67;8.40;;;;;;;;;;5135426;27;20434;-61
2023/09/11 09:52:10;;;;;;;17.73;7.87;;;;;;;;;;5135482;27;20798;-61
2023/09/11 09:54:45;;;;;;;18.13;8.27;;;;;;;;;;5135269;27;20449;-61
2023/09/11 09:57:12;;;;;;;17.83;8.83;;;;;;;;;;5135039;27;20925;-61
2023/09/11 09:59:40;;;;;;;22.47;9.23;;;;;;;;;;5134763;27;20936;-61
2023/09/11 10:02:09;;;;;;;13.80;8.63;;;;;;;;;;5134809;27;20440;-61
2023/09/11 10:04:38;;;;;;;25.20;12.53;;;;;;;;;;5133582;27;20460;-62
2023/09/11 10:07:05;;;;;;;13.47;9.13;;;;;;;;;;5135113;27;20436;-61
2023/09/11 10:09:33;;;;;;;20.53;8.93;;;;;;;;;;5134635;27;20817;-62
2023/09/11 10:12:03;;;;;;;13.30;8.23;;;;;;;;;;5135422;27;20499;-61
2023/09/11 10:14:31;;;;;;;12.73;7.60;;;;;;;;;;5135042;27;20452;-62
2023/09/11 10:16:59;;;;;;;13.13;8.27;;;;;;;;;;5134581;27;20449;-62
2023/09/11 10:19:29;;;;;;;14.80;8.90;;;;;;;;;;5134814;27;20785;-61
2023/09/11 10:21:57;;;;;;;12.50;8.23;;;;;;;;;;5134879;27;20442;-61
2023/09/11 10:24:25;;;;;;;13.40;8.30;;;;;;;;;;5134543;27;20490;-61
2023/09/11 10:26:54;;;;;;;15.27;7.87;;;;;;;;;;5134663;27;20534;-61
2023/09/11 10:29:23;;;;;;;16.20;7.53;;;;;;;;;;5134475;27;20530;-61
2023/09/11 10:31:53;;;;;;;17.70;7.93;;;;;;;;;;5134401;27;20986;-61
2023/09/11 10:34:21;;;;;;;13.63;8.80;;;;;;;;;;5134244;27;20492;-60
2023/09/11 10:36:51;;;;;;;14.50;7.43;;;;;;;;;;5134476;27;20860;-61
2023/09/11 10:39:20;;;;;;;18.73;8.40;;;;;;;;;;5134035;27;20916;-61
2023/09/11 10:41:48;;;;;;;48.20;9.83;;;;;;;;;;5134797;27;20480;-61
2023/09/11 10:44:16;;;;;;;17.77;8.30;;;;;;;;;;5134303;27;20437;-61
2023/09/11 10:46:49;;;;;;;20.27;8.30;;;;;;;;;;5134354;27;20487;-61
2023/09/11 10:49:17;;;;;;;23.73;8.40;;;;;;;;;;5134576;27;20834;-61
2023/09/11 10:51:46;;;;;;;27.90;9.10;;;;;;;;;;5134234;27;20504;-61
2023/09/11 10:54:13;;;;;;;26.93;10.53;;;;;;;;;;5134142;27;20449;-62
2023/09/11 10:56:43;;;;;;;17.20;7.37;;;;;;;;;;5133894;27;20435;-61
2023/09/11 10:59:11;;;;;;;13.67;8.00;;;;;;;;;;5134048;27;20437;-61
2023/09/11 11:01:38;;;;;;;15.00;7.40;;;;;;;;;;5133987;27;20780;-60
2023/09/11 11:04:05;;;;;;;17.80;8.60;;;;;;;;;;5134211;27;20438;-61
2023/09/11 11:06:33;;;;;;;15.20;8.20;;;;;;;;;;5134261;27;20441;-61
2023/09/11 11:09:01;;;;;;;14.70;8.13;;;;;;;;;;5134352;27;20820;-61
2023/09/11 11:11:29;;;;;;;18.03;8.17;;;;;;;;;;5133908;27;20506;-61
2023/09/11 11:14:14;;;;;;;10.53;7.40;;;;;;;;;;5134581;27;20439;-61
2023/09/11 11:16:54;;;;;;;13.10;10.77;;;;;;;;;;5133959;27;20405;-61
2023/09/11 11:19:28;;;;;;;11.47;7.80;;;;;;;;;;5133823;27;20437;-61
2023/09/11 11:21:55;;;;;;;14.33;7.07;;;;;;;;;;5134038;27;20858;-61
2023/09/11 11:24:24;;;;;;;15.10;8.33;;;;;;;;;;5133526;27;20476;-61
2023/09/11 11:26:56;;;;;;;14.43;7.70;;;;;;;;;;5134425;27;20432;-61
2023/09/11 11:29:25;;;;;;;11.53;7.87;;;;;;;;;;5133714;27;20414;-61
2023/09/11 11:31:54;;;;;;;10.13;8.33;;;;;;;;;;5133998;28;20462;-61
2023/09/11 11:34:24;;;;;;;9.90;7.53;;;;;;;;;;5133247;28;20463;-62
2023/09/11 11:36:54;;;;;;;14.27;7.87;;;;;;;;;;5133615;28;20424;-62
2023/09/11 11:39:22;;;;;;;10.20;7.37;;;;;;;;;;5133220;28;20934;-62
2023/09/11 11:41:51;;;;;;;12.17;7.27;;;;;;;;;;5133377;28;20447;-62
2023/09/11 11:44:19;;;;;;;15.37;8.20;;;;;;;;;;5133036;28;20442;-62
2023/09/11 11:46:47;;;;;;;19.20;8.70;;;;;;;;;;5133509;28;20525;-62
2023/09/11 11:49:18;;;;;;;11.97;7.30;;;;;;;;;;5133427;28;20495;-62
2023/09/11 11:51:45;;;;;;;10.87;8.70;;;;;;;;;;5132722;28;20447;-61
2023/09/11 11:54:21;;;;;;;13.20;9.20;;;;;;;;;;5133185;28;20538;-62
2023/09/11 11:56:49;;;;;;;14.97;7.90;;;;;;;;;;5133801;28;20754;-61
2023/09/11 11:59:16;;;;;;;21.97;8.00;;;;;;;;;;5133377;28;20510;-62
2023/09/11 12:01:45;;;;;;;14.13;7.10;;;;;;;;;;5133411;28;20528;-61
2023/09/11 12:04:13;;;;;;;16.30;8.20;;;;;;;;;;5133094;28;20414;-62
2023/09/11 12:06:40;;;;;;;15.63;8.27;;;;;;;;;;5133450;28;20441;-61
2023/09/11 12:09:09;;;;;;;15.30;7.83;;;;;;;;;;5132950;28;20445;-62
2023/09/11 12:11:38;;;;;;;19.87;7.13;;;;;;;;;;5133338;28;20462;-61
2023/09/11 12:14:05;;;;;;;14.70;7.20;;;;;;;;;;5133294;28;20443;-62
2023/09/11 12:16:33;;;;;;;13.23;7.40;;;;;;;;;;5133527;28;20437;-61
2023/09/11 12:19:00;;;;;;;12.70;6.37;;;;;;;;;;5133320;28;20491;-61
2023/09/11 12:21:31;;;;;;;15.13;7.07;;;;;;;;;;5132895;28;20988;-61
2023/09/11 12:23:59;;;;;;;13.80;7.07;;;;;;;;;;5132929;28;20477;-61
2023/09/11 12:26:27;;;;;;;12.07;6.60;;;;;;;;;;5132813;27;20411;-62
2023/09/11 12:28:55;;;;;;;13.60;7.60;;;;;;;;;;5135917;27;20411;-61
2023/09/11 12:31:22;;;;;;;7.73;6.93;;;;;;;;;;5136511;27;20508;-61
2023/09/11 12:33:53;;;;;;;16.00;7.70;;;;;;;;;;5136490;27;20950;-61
2023/09/11 12:36:21;;;;;;;12.23;6.67;;;;;;;;;;5136272;27;20975;-61
2023/09/11 12:38:50;;;;;;;13.63;7.60;;;;;;;;;;5136861;27;20421;-61
2023/09/11 12:41:17;;;;;;;10.97;7.50;;;;;;;;;;5136409;27;20411;-61
2023/09/11 12:43:44;;;;;;;13.50;7.73;;;;;;;;;;5136876;27;20820;-61
2023/09/11 12:46:12;;;;;;;18.03;7.40;;;;;;;;;;5136418;27;20441;-61
2023/09/11 12:48:41;;;;;;;14.30;7.60;;;;;;;;;;5136368;27;20440;-61
2023/09/11 12:51:09;;;;;;;10.43;7.07;;;;;;;;;;5136055;27;20424;-61
2023/09/11 12:53:36;;;;;;;16.50;7.10;;;;;;;;;;5135851;27;20507;-61
2023/09/11 12:56:08;;;;;;;13.23;7.77;;;;;;;;;;5135668;27;20792;-62
2023/09/11 12:58:36;;;;;;;10.07;7.03;;;;;;;;;;5136246;27;20413;-61
2023/09/11 13:01:04;;;;;;;12.90;7.97;;;;;;;;;;5136257;27;20883;-61
2023/09/11 13:03:32;;;;;;;11.53;7.40;;;;;;;;;;5136125;27;20442;-61
2023/09/11 13:05:59;;;;;;;15.93;7.53;;;;;;;;;;5135782;27;20416;-61
2023/09/11 13:08:28;;;;;;;8.33;6.90;;;;;;;;;;5135832;27;20408;-61
2023/09/11 13:10:55;;;;;;;12.07;6.60;;;;;;;;;;5135890;27;20448;-61
2023/09/11 13:13:24;;;;;;;11.33;7.03;;;;;;;;;;5136127;27;20451;-61
2023/09/11 13:15:51;;;;;;;9.10;7.23;;;;;;;;;;5135709;27;20408;-61
2023/09/11 13:18:18;;;;;;;9.90;7.63;;;;;;;;;;5136207;27;20469;-61
2023/09/11 13:20:45;;;;;;;10.23;8.03;;;;;;;;;;5135687;27;20476;-61
2023/09/11 13:23:13;;;;;;;12.43;7.70;;;;;;;;;;5135765;27;20408;-61
2023/09/11 13:25:41;;;;;;;10.13;7.23;;;;;;;;;;5135092;27;20444;-61
2023/09/11 13:28:08;;;;;;;8.30;7.40;;;;;;;;;;5135726;27;20445;-62
2023/09/11 13:30:36;;;;;;;11.40;7.40;;;;;;;;;;5135625;27;20453;-61
2023/09/11 13:33:04;;;;;;;8.80;7.43;;;;;;;;;;5135739;27;20455;-61
2023/09/11 13:35:31;;;;;;;13.13;7.23;;;;;;;;;;5135624;27;20438;-61
2023/09/11 13:37:58;;;;;;;9.40;6.73;;;;;;;;;;5135298;27;20437;-61
2023/09/11 13:40:25;;;;;;;10.83;7.20;;;;;;;;;;5135439;27;20412;-61
2023/09/11 13:42:53;;;;;;;10.67;7.30;;;;;;;;;;5135340;27;20533;-61
2023/09/11 13:45:20;;;;;;;11.77;6.50;;;;;;;;;;5135338;27;20788;-62
2023/09/11 13:47:49;;;;;;;10.60;7.67;;;;;;;;;;5135201;27;20438;-61
2023/09/11 13:50:16;;;;;;;18.27;7.23;;;;;;;;;;5135562;27;20434;-61
2023/09/11 13:52:43;;;;;;;8.20;6.73;;;;;;;;;;5135352;27;20828;-61
2023/09/11 13:55:10;;;;;;;12.10;7.00;;;;;;;;;;5135672;27;20763;-61
2023/09/11 13:57:37;;;;;;;11.90;7.40;;;;;;;;;;5134999;27;20439;-61
2023/09/11 14:00:06;;;;;;;10.70;7.33;;;;;;;;;;5134939;27;20998;-62
2023/09/11 14:02:33;;;;;;;12.27;7.17;;;;;;;;;;5134909;27;20555;-62
2023/09/11 14:05:03;;;;;;;8.17;7.37;;;;;;;;;;5135491;27;20800;-61
2023/09/11 14:07:30;;;;;;;9.70;7.40;;;;;;;;;;5134731;27;20913;-61
2023/09/11 14:09:57;;;;;;;8.40;6.80;;;;;;;;;;5135134;27;20536;-61
2023/09/11 14:12:25;;;;;;;8.80;8.00;;;;;;;;;;5135047;27;20479;-62
2023/09/11 14:14:52;;;;;;;14.40;9.50;;;;;;;;;;5134786;27;20441;-61
2023/09/11 14:17:19;;;;;;;19.00;8.93;;;;;;;;;;5134823;27;21004;-61
2023/09/11 14:19:46;;;;;;;9.37;8.40;;;;;;;;;;5134965;27;20546;-62
2023/09/11 14:22:15;;;;;;;14.80;8.73;;;;;;;;;;5134782;27;20531;-61
2023/09/11 14:24:42;;;;;;;12.57;8.13;;;;;;;;;;5134316;27;20473;-62
2023/09/11 14:27:11;;;;;;;13.90;8.30;;;;;;;;;;5134613;27;20444;-61